createdAt,value
2019-05-12T00:01:59.579Z,98006.47
2019-05-12T00:04:31.559Z,98002.67
2019-05-12T00:07:04.745Z,98008.00
2019-05-12T00:09:38.761Z,98005.89
2019-05-12T00:12:10.359Z,98011.13
2019-05-12T00:14:42.391Z,98007.14
2019-05-12T00:17:14.339Z,98007.98
2019-05-12T00:19:47.949Z,98006.65
2019-05-12T00:22:22.579Z,98007.32
2019-05-12T00:24:54.621Z,98006.83
2019-05-12T00:27:28.463Z,98012.09
2019-05-12T00:30:00.861Z,98009.59
2019-05-12T00:32:32.910Z,98014.64
2019-05-12T00:35:07.657Z,98012.93
2019-05-12T00:37:38.801Z,98013.31
2019-05-12T00:40:11.144Z,98019.30
2019-05-12T00:42:43.101Z,98013.22
2019-05-12T00:45:15.123Z,98019.13
2019-05-12T00:47:48.064Z,98018.25
2019-05-12T00:50:20.173Z,98015.02
2019-05-12T00:52:52.187Z,98018.80
2019-05-12T00:55:24.157Z,98016.13
2019-05-12T00:57:58.203Z,98015.45
2019-05-12T01:00:30.305Z,98012.51
2019-05-12T01:03:02.291Z,98010.80
2019-05-12T01:05:38.013Z,98011.90
2019-05-12T01:08:09.713Z,98014.85
2019-05-12T01:10:41.891Z,98014.82
2019-05-12T01:13:13.973Z,98016.99
2019-05-12T01:15:48.025Z,98016.70
2019-05-12T01:18:19.764Z,98019.59
2019-05-12T01:20:51.706Z,98017.34
2019-05-12T01:23:23.756Z,98016.86
2019-05-12T01:25:58.298Z,98017.59
2019-05-12T01:28:30.099Z,98021.64
2019-05-12T01:31:03.737Z,98024.58
2019-05-12T01:33:37.963Z,98028.22
2019-05-12T01:36:09.409Z,98036.20
2019-05-12T01:38:41.473Z,98037.43
2019-05-12T01:41:13.521Z,98043.13
2019-05-12T01:43:45.487Z,98040.53
2019-05-12T01:46:18.117Z,98047.18
2019-05-12T01:48:50.646Z,98043.29
2019-05-12T01:51:22.821Z,98042.90
2019-05-12T01:54:08.549Z,98050.07
2019-05-12T01:56:28.911Z,98048.35
2019-05-12T01:59:00.967Z,98051.55
2019-05-12T02:01:33.684Z,98061.50
2019-05-12T02:04:07.789Z,98057.16
2019-05-12T02:06:39.965Z,98057.22
2019-05-12T02:09:14.575Z,98053.33
2019-05-12T02:11:48.348Z,98065.92
2019-05-12T02:14:20.485Z,98061.55
2019-05-12T02:16:52.433Z,98065.14
2019-05-12T02:19:24.423Z,98062.97
2019-05-12T02:21:57.942Z,98059.13
2019-05-12T02:24:30.640Z,98054.95
2019-05-12T02:27:02.847Z,98061.23
2019-05-12T02:29:34.917Z,98059.06
2019-05-12T02:32:06.898Z,98059.91
2019-05-12T02:34:38.889Z,98063.50
2019-05-12T02:37:11.133Z,98066.80
2019-05-12T02:39:44.877Z,98077.06
2019-05-12T02:42:16.961Z,98080.41
2019-05-12T02:44:48.954Z,98075.58
2019-05-12T02:47:23.847Z,98073.47
2019-05-12T02:49:55.028Z,98081.28
2019-05-12T02:52:27.168Z,98090.09
2019-05-12T02:55:00.863Z,98090.09
2019-05-12T02:57:34.936Z,98102.52
2019-05-12T03:00:09.973Z,98105.48
2019-05-12T03:02:44.934Z,98110.70
2019-05-12T03:05:16.909Z,98114.38
2019-05-12T03:07:50.999Z,98114.48
2019-05-12T03:10:25.257Z,98116.25
2019-05-12T03:12:56.704Z,98118.13
2019-05-12T03:15:28.698Z,98125.31
2019-05-12T03:18:01.067Z,98119.30
2019-05-12T03:20:35.040Z,98109.91
2019-05-12T03:23:07.110Z,98117.13
2019-05-12T03:25:39.294Z,98128.20
2019-05-12T03:28:11.245Z,98131.34
2019-05-12T03:30:48.383Z,98131.64
2019-05-12T03:33:19.525Z,98122.26
2019-05-12T03:35:54.985Z,98125.46
2019-05-12T03:38:27.815Z,98128.33
2019-05-12T03:40:58.383Z,98127.55
2019-05-12T03:43:30.635Z,98127.57
2019-05-12T03:46:05.268Z,98141.45
2019-05-12T03:48:36.343Z,98137.42
2019-05-12T03:51:08.286Z,98138.91
2019-05-12T03:53:40.269Z,98144.21
2019-05-12T03:56:15.052Z,98149.58
2019-05-12T03:58:45.954Z,98146.31
2019-05-12T04:01:17.890Z,98149.66
2019-05-12T04:03:50.004Z,98153.59
2019-05-12T04:06:24.542Z,98162.45
2019-05-12T04:08:59.923Z,98163.48
2019-05-12T04:11:30.761Z,98162.68
2019-05-12T04:14:05.474Z,98167.06
2019-05-12T04:16:36.847Z,98165.44
2019-05-12T04:19:09.122Z,98169.95
2019-05-12T04:21:44.364Z,98174.72
2019-05-12T04:24:15.087Z,98181.41
2019-05-12T04:26:47.249Z,98181.27
2019-05-12T04:29:19.224Z,98176.94
2019-05-12T04:31:51.169Z,98188.76
2019-05-12T04:34:25.085Z,98199.86
2019-05-12T04:36:57.035Z,98201.78
2019-05-12T04:39:29.017Z,98204.42
2019-05-12T04:42:01.253Z,98206.28
2019-05-12T04:44:34.681Z,98216.94
2019-05-12T04:47:07.067Z,98212.82
2019-05-12T04:49:39.028Z,98219.88
2019-05-12T04:52:11.168Z,98223.66
2019-05-12T04:54:44.487Z,98221.06
2019-05-12T04:57:20.841Z,98232.83
2019-05-12T04:59:54.093Z,98225.55
2019-05-12T05:02:25.240Z,98219.07
2019-05-12T05:04:57.370Z,98225.45
2019-05-12T05:07:29.315Z,98224.03
2019-05-12T05:10:04.460Z,98224.95
2019-05-12T05:12:35.114Z,98217.59
2019-05-12T05:15:08.887Z,98221.73
2019-05-12T05:17:43.978Z,98224.91
2019-05-12T05:20:15.109Z,98226.91
2019-05-12T05:22:47.106Z,98238.66
2019-05-12T05:25:19.041Z,98242.56
2019-05-12T05:27:53.249Z,98250.05
2019-05-12T05:30:27.168Z,98250.42
2019-05-12T05:32:59.216Z,98264.12
2019-05-12T05:35:37.177Z,98271.15
2019-05-12T05:38:04.951Z,98285.34
2019-05-12T05:40:36.908Z,98295.47
2019-05-12T05:43:13.888Z,98300.81
2019-05-12T05:45:43.823Z,98313.44
2019-05-12T05:48:15.929Z,98312.03
2019-05-12T05:50:47.897Z,98317.22
2019-05-12T05:53:20.313Z,98319.97
2019-05-12T05:55:56.316Z,98326.98
2019-05-12T05:58:26.331Z,98331.69
2019-05-12T06:01:03.872Z,98334.03
2019-05-12T06:03:33.861Z,98331.61
2019-05-12T06:06:10.722Z,98334.86
2019-05-12T06:08:39.921Z,98343.59
2019-05-12T06:11:16.895Z,98344.97
2019-05-12T06:13:46.667Z,98353.83
2019-05-12T06:16:20.771Z,98356.41
2019-05-12T06:18:54.403Z,98354.97
2019-05-12T06:21:29.105Z,98365.62
2019-05-12T06:23:59.886Z,98363.38
2019-05-12T06:26:35.307Z,98363.63
2019-05-12T06:29:05.622Z,98362.73
2019-05-12T06:31:40.280Z,98372.80
2019-05-12T06:34:15.165Z,98370.77
2019-05-12T06:36:46.104Z,98372.10
2019-05-12T06:39:20.589Z,98375.13
2019-05-12T06:41:55.187Z,98378.80
2019-05-12T06:44:25.788Z,98377.16
2019-05-12T06:47:03.301Z,98379.47
2019-05-12T06:49:33.741Z,98379.06
2019-05-12T06:52:07.185Z,98375.77
2019-05-12T06:54:44.521Z,98390.80
2019-05-12T06:57:24.195Z,98384.55
2019-05-12T06:59:50.988Z,98390.60
2019-05-12T07:02:20.214Z,98395.89
2019-05-12T07:04:57.276Z,98398.25
2019-05-12T07:07:27.725Z,98407.45
2019-05-12T07:10:10.450Z,98407.20
2019-05-12T07:12:43.487Z,98405.74
2019-05-12T07:15:11.124Z,98411.98
2019-05-12T07:17:57.111Z,98421.04
2019-05-12T07:20:34.160Z,98423.25
2019-05-12T07:23:03.967Z,98422.20
2019-05-12T07:25:36.776Z,98427.21
2019-05-12T07:28:09.145Z,98425.48
2019-05-12T07:30:43.905Z,98430.47
2019-05-12T07:33:15.637Z,98436.84
2019-05-12T07:35:53.370Z,98434.24
2019-05-12T07:38:26.031Z,98436.82
2019-05-12T07:41:00.711Z,98426.40
2019-05-12T07:43:34.157Z,98434.05
2019-05-12T07:46:07.248Z,98428.20
2019-05-12T07:48:40.255Z,98428.20
2019-05-12T07:51:13.875Z,98431.89
2019-05-12T07:53:54.249Z,98433.53
2019-05-12T07:56:27.625Z,98447.03
2019-05-12T07:58:56.915Z,98454.65
2019-05-12T08:01:27.787Z,98458.67
2019-05-12T08:04:01.303Z,98468.11
2019-05-12T08:06:41.399Z,98465.84
2019-05-12T08:09:08.503Z,98467.03
2019-05-12T08:11:40.751Z,98465.35
2019-05-12T08:14:24.826Z,98471.18
2019-05-12T08:16:46.458Z,98467.24
2019-05-12T08:19:23.867Z,98468.00
2019-05-12T08:21:53.771Z,98471.13
2019-05-12T08:24:26.003Z,98472.50
2019-05-12T08:27:03.001Z,98481.27
2019-05-12T08:29:34.137Z,98480.81
2019-05-12T08:32:09.927Z,98487.38
2019-05-12T08:34:39.969Z,98493.44
2019-05-12T08:37:13.952Z,98490.02
2019-05-12T08:39:46.082Z,98490.52
2019-05-12T08:42:18.065Z,98491.12
2019-05-12T08:44:50.551Z,98495.80
2019-05-12T08:47:23.868Z,98501.05
2019-05-12T08:49:58.745Z,98502.73
2019-05-12T08:52:30.570Z,98506.64
2019-05-12T08:55:04.404Z,98507.98
2019-05-12T08:57:40.621Z,98515.06
2019-05-12T09:00:13.284Z,98519.61
2019-05-12T09:02:50.297Z,98517.04
2019-05-12T09:05:18.864Z,98525.61
2019-05-12T09:07:54.127Z,98525.22
2019-05-12T09:10:26.141Z,98532.81
2019-05-12T09:12:58.295Z,98540.72
2019-05-12T09:15:30.542Z,98547.23
2019-05-12T09:18:04.854Z,98539.32
2019-05-12T09:20:39.415Z,98544.27
2019-05-12T09:23:10.660Z,98548.61
2019-05-12T09:25:45.074Z,98553.48
2019-05-12T09:28:16.603Z,98554.83
2019-05-12T09:30:49.511Z,98559.80
2019-05-12T09:33:26.778Z,98568.37
2019-05-12T09:35:55.389Z,98578.34
2019-05-12T09:38:27.436Z,98588.00
2019-05-12T09:41:01.076Z,98595.03
2019-05-12T09:43:34.397Z,98602.48
2019-05-12T09:46:06.566Z,98601.29
2019-05-12T09:48:39.113Z,98613.42
2019-05-12T09:51:13.331Z,98620.28
2019-05-12T09:53:50.799Z,98618.97
2019-05-12T09:56:19.843Z,98615.89
2019-05-12T09:59:01.584Z,98621.78
2019-05-12T10:01:29.249Z,98631.91
2019-05-12T10:03:59.380Z,98633.57
2019-05-12T10:06:33.776Z,98641.43
2019-05-12T10:09:08.924Z,98643.91
2019-05-12T10:11:40.271Z,98649.93
2019-05-12T10:14:13.988Z,98653.52
2019-05-12T10:16:49.727Z,98658.37
2019-05-12T10:19:20.222Z,98667.33
2019-05-12T10:21:55.310Z,98672.47
2019-05-12T10:24:26.049Z,98681.95
2019-05-12T10:26:58.043Z,98675.30
2019-05-12T10:29:32.447Z,98686.84
2019-05-12T10:32:04.529Z,98692.34
2019-05-12T10:34:40.253Z,98689.50
2019-05-12T10:37:10.644Z,98695.90
2019-05-12T10:39:42.674Z,98698.89
2019-05-12T10:42:14.727Z,98702.98
2019-05-12T10:44:46.733Z,98709.98
2019-05-12T10:47:18.821Z,98710.66
2019-05-12T10:49:50.927Z,98717.19
2019-05-12T10:52:24.396Z,98719.11
2019-05-12T10:54:56.554Z,98729.25
2019-05-12T10:57:28.622Z,98727.92
2019-05-12T11:00:01.047Z,98740.16
2019-05-12T11:02:33.651Z,98737.84
2019-05-12T11:05:12.434Z,98740.42
2019-05-12T11:07:43.451Z,98740.21
2019-05-12T11:10:19.834Z,98751.20
2019-05-12T11:12:48.887Z,98753.87
2019-05-12T11:15:21.345Z,98747.66
2019-05-12T11:18:08.279Z,98748.34
2019-05-12T11:20:40.636Z,98757.38
2019-05-12T11:23:13.755Z,98755.25
2019-05-12T11:25:45.917Z,98758.59
2019-05-12T11:28:18.058Z,98759.05
2019-05-12T11:30:50.461Z,98763.12
2019-05-12T11:33:23.786Z,98759.72
2019-05-12T11:35:56.017Z,98765.64
2019-05-12T11:38:28.120Z,98772.14
2019-05-12T11:41:00.131Z,98774.67
2019-05-12T11:43:33.796Z,98779.97
2019-05-12T11:46:06.026Z,98792.08
2019-05-12T11:48:40.243Z,98795.42
2019-05-12T11:51:14.273Z,98799.23
2019-05-12T11:53:45.792Z,98798.66
2019-05-12T11:56:17.814Z,98807.02
2019-05-12T11:58:51.499Z,98812.34
2019-05-12T12:01:25.217Z,98815.73
2019-05-12T12:03:57.413Z,98814.48
2019-05-12T12:06:29.719Z,98818.25
2019-05-12T12:09:03.831Z,98828.91
2019-05-12T12:11:35.921Z,98832.96
2019-05-12T12:14:10.550Z,98853.26
2019-05-12T12:16:49.787Z,98853.50
2019-05-12T12:19:15.624Z,98853.39
2019-05-12T12:21:50.094Z,98852.41
2019-05-12T12:24:29.742Z,98850.86
2019-05-12T12:26:55.315Z,98859.98
2019-05-12T12:29:28.287Z,98863.64
2019-05-12T12:32:00.580Z,98869.69
2019-05-12T12:34:33.182Z,98876.98
2019-05-12T12:37:05.461Z,98870.56
2019-05-12T12:39:37.453Z,98881.13
2019-05-12T12:42:09.607Z,98877.67
2019-05-12T12:44:41.599Z,98876.66
2019-05-12T12:47:14.012Z,98881.67
2019-05-12T12:49:49.250Z,98881.43
2019-05-12T12:52:20.006Z,98884.73
2019-05-12T12:54:54.190Z,98888.96
2019-05-12T12:57:25.847Z,98890.02
2019-05-12T12:59:59.654Z,98894.58
2019-05-12T13:02:33.744Z,98895.91
2019-05-12T13:05:05.687Z,98896.58
2019-05-12T13:07:37.722Z,98906.98
2019-05-12T13:10:10.959Z,98910.18
2019-05-12T13:12:43.682Z,98910.82
2019-05-12T13:15:16.367Z,98910.84
2019-05-12T13:17:48.456Z,98905.12
2019-05-12T13:20:20.703Z,98919.78
2019-05-12T13:22:53.611Z,98914.30
2019-05-12T13:25:25.824Z,98925.25
2019-05-12T13:28:01.446Z,98927.33
2019-05-12T13:30:45.918Z,98931.87
2019-05-12T13:33:08.917Z,98934.23
2019-05-12T13:35:40.659Z,98928.47
2019-05-12T13:38:14.481Z,98929.84
2019-05-12T13:40:46.703Z,98941.97
2019-05-12T13:43:19.729Z,98946.23
2019-05-12T13:45:53.468Z,98945.98
2019-05-12T13:48:25.677Z,98946.23
2019-05-12T13:51:07.397Z,98942.94
2019-05-12T13:53:33.378Z,98942.94
2019-05-12T13:56:05.043Z,98962.35
2019-05-12T13:58:42.829Z,98965.86
2019-05-12T14:01:19.941Z,98962.01
2019-05-12T14:03:50.520Z,98969.27
2019-05-12T14:06:23.041Z,98965.12
2019-05-12T14:08:53.808Z,98969.61
2019-05-12T14:11:26.137Z,98965.13
2019-05-12T14:14:00.847Z,98964.87
2019-05-12T14:16:33.897Z,98967.95
2019-05-12T14:19:06.402Z,98972.65
2019-05-12T14:21:41.207Z,98969.14
2019-05-12T14:24:13.929Z,98980.78
2019-05-12T14:26:49.392Z,98974.39
2019-05-12T14:29:25.379Z,98983.83
2019-05-12T14:31:59.617Z,98982.25
2019-05-12T14:34:28.002Z,98984.64
2019-05-12T14:37:08.453Z,98983.57
2019-05-12T14:39:34.430Z,98985.79
2019-05-12T14:42:06.739Z,98986.12
2019-05-12T14:44:44.993Z,98987.89
2019-05-12T14:47:12.459Z,98988.41
2019-05-12T14:49:44.472Z,98995.30
2019-05-12T14:52:16.539Z,99004.71
2019-05-12T14:54:48.669Z,99008.66
2019-05-12T14:57:20.943Z,99012.66
2019-05-12T14:59:52.960Z,99011.58
2019-05-12T15:02:28.206Z,99017.28
2019-05-12T15:05:00.271Z,99013.81
2019-05-12T15:07:32.568Z,99010.64
2019-05-12T15:10:08.695Z,99011.81
2019-05-12T15:12:38.439Z,99009.82
2019-05-12T15:15:18.386Z,99017.28
2019-05-12T15:17:44.810Z,99020.28
2019-05-12T15:20:17.040Z,99019.22
2019-05-12T15:22:51.655Z,99023.17
2019-05-12T15:25:22.678Z,99032.35
2019-05-12T15:27:54.780Z,99032.13
2019-05-12T15:30:26.986Z,99032.82
2019-05-12T15:32:59.130Z,99041.06
2019-05-12T15:35:31.158Z,99048.39
2019-05-12T15:38:03.883Z,99058.95
2019-05-12T15:40:36.079Z,99062.11
2019-05-12T15:43:09.327Z,99068.45
2019-05-12T15:45:43.603Z,99075.85
2019-05-12T15:48:18.417Z,99070.20
2019-05-12T15:50:49.244Z,99086.05
2019-05-12T15:53:22.379Z,99087.52
2019-05-12T15:55:55.112Z,99087.60
2019-05-12T15:58:27.175Z,99098.53
2019-05-12T16:00:59.166Z,99101.00
2019-05-12T16:03:31.335Z,99101.28
2019-05-12T16:06:10.042Z,99098.56
2019-05-12T16:08:37.331Z,99099.17
2019-05-12T16:11:09.330Z,99111.27
2019-05-12T16:13:44.849Z,99114.95
2019-05-12T16:16:15.319Z,99109.99
2019-05-12T16:18:50.630Z,99119.63
2019-05-12T16:21:21.765Z,99128.09
2019-05-12T16:23:56.724Z,99125.08
2019-05-12T16:26:27.647Z,99133.72
2019-05-12T16:29:03.173Z,99139.72
2019-05-12T16:31:33.999Z,99139.92
2019-05-12T16:34:06.300Z,99143.22
2019-05-12T16:36:41.183Z,99146.95
2019-05-12T16:39:13.490Z,99145.77
2019-05-12T16:41:45.651Z,99154.82
2019-05-12T16:44:23.091Z,99154.19
2019-05-12T16:46:53.437Z,99160.64
2019-05-12T16:49:33.354Z,99156.91
2019-05-12T16:51:59.183Z,99160.16
2019-05-12T16:54:33.437Z,99157.69
2019-05-12T16:57:06.338Z,99163.95
2019-05-12T16:59:38.853Z,99160.94
2019-05-12T17:02:11.360Z,99166.00
2019-05-12T17:04:43.472Z,99169.42
2019-05-12T17:07:19.365Z,99173.88
2019-05-12T17:09:49.455Z,99172.78
2019-05-12T17:12:23.862Z,99178.20
2019-05-12T17:14:55.201Z,99173.98
2019-05-12T17:17:27.336Z,99177.80
2019-05-12T17:19:59.331Z,99182.02
2019-05-12T17:22:31.311Z,99181.72
2019-05-12T17:25:04.958Z,99190.77
2019-05-12T17:27:37.096Z,99192.09
2019-05-12T17:30:09.680Z,99196.17
2019-05-12T17:32:54.905Z,99194.95
2019-05-12T17:35:20.169Z,99210.60
2019-05-12T17:37:50.594Z,99211.55
2019-05-12T17:40:24.283Z,99218.64
2019-05-12T17:43:05.210Z,99218.70
2019-05-12T17:45:30.408Z,99225.67
2019-05-12T17:48:07.418Z,99221.28
2019-05-12T17:50:40.349Z,99223.23
2019-05-12T17:53:13.576Z,99227.30
2019-05-12T17:55:51.285Z,99231.21
2019-05-12T17:58:18.323Z,99243.16
2019-05-12T18:00:51.909Z,99242.22
2019-05-12T18:03:25.759Z,99244.33
2019-05-12T18:05:57.984Z,99246.61
2019-05-12T18:08:35.824Z,99252.52
2019-05-12T18:11:03.933Z,99258.18
2019-05-12T18:13:39.807Z,99262.63
2019-05-12T18:16:11.418Z,99262.19
2019-05-12T18:18:44.373Z,99270.92
2019-05-12T18:21:21.485Z,99270.55
2019-05-12T18:23:53.660Z,99287.46
2019-05-12T18:26:25.980Z,99294.16
2019-05-12T18:28:58.137Z,99287.07
2019-05-12T18:31:30.516Z,99290.11
2019-05-12T18:34:04.745Z,99297.51
2019-05-12T18:36:36.304Z,99299.27
2019-05-12T18:39:11.841Z,99305.83
2019-05-12T18:41:43.926Z,99304.63
2019-05-12T18:44:25.293Z,99313.42
2019-05-12T18:46:49.981Z,99302.94
2019-05-12T18:49:23.843Z,99320.55
2019-05-12T18:51:57.226Z,99316.54
2019-05-12T18:54:29.496Z,99320.45
2019-05-12T18:57:03.113Z,99326.88
2019-05-12T18:59:35.209Z,99328.25
2019-05-12T19:02:07.606Z,99330.95
2019-05-12T19:04:41.226Z,99331.45
2019-05-12T19:07:15.322Z,99341.19
2019-05-12T19:09:47.583Z,99342.30
2019-05-12T19:12:21.608Z,99349.51
2019-05-12T19:14:54.719Z,99343.50
2019-05-12T19:17:26.839Z,99343.63
2019-05-12T19:19:59.781Z,99345.88
2019-05-12T19:22:33.649Z,99350.73
2019-05-12T19:25:06.037Z,99355.52
2019-05-12T19:27:38.066Z,99351.95
2019-05-12T19:30:10.206Z,99356.33
2019-05-12T19:32:44.471Z,99352.87
2019-05-12T19:35:20.354Z,99358.28
2019-05-12T19:37:50.793Z,99357.86
2019-05-12T19:40:22.920Z,99355.09
2019-05-12T19:43:02.119Z,99348.99
2019-05-12T19:45:28.878Z,99350.73
2019-05-12T19:48:01.252Z,99351.55
2019-05-12T19:50:33.377Z,99356.53
2019-05-12T19:53:05.609Z,99357.86
2019-05-12T19:55:37.651Z,99361.83
2019-05-12T19:58:11.375Z,99362.59
2019-05-12T20:00:44.445Z,99367.80
2019-05-12T20:03:16.659Z,99369.53
2019-05-12T20:05:48.853Z,99372.06
2019-05-12T20:08:21.025Z,99373.38
2019-05-12T20:10:54.148Z,99375.17
2019-05-12T20:13:29.546Z,99378.11
2019-05-12T20:16:01.338Z,99380.80
2019-05-12T20:18:36.092Z,99386.05
2019-05-12T20:21:07.164Z,99386.55
2019-05-12T20:23:39.365Z,99395.41
2019-05-12T20:26:11.459Z,99390.52
2019-05-12T20:28:50.087Z,99385.66
2019-05-12T20:31:17.300Z,99390.17
2019-05-12T20:33:49.337Z,99392.55
2019-05-12T20:36:25.912Z,99385.09
2019-05-12T20:38:55.612Z,99391.81
2019-05-12T20:41:27.699Z,99385.72
2019-05-12T20:43:59.758Z,99385.84
2019-05-12T20:46:33.969Z,99383.20
2019-05-12T20:49:09.703Z,99383.20
2019-05-12T20:51:40.171Z,99388.05
2019-05-12T20:54:17.938Z,99387.12
2019-05-12T20:56:47.048Z,99386.30
2019-05-12T20:59:21.953Z,99380.28
2019-05-12T21:01:53.195Z,99383.81
2019-05-12T21:04:31.434Z,99378.54
2019-05-12T21:06:59.103Z,99376.78
2019-05-12T21:09:31.202Z,99366.64
2019-05-12T21:12:03.175Z,99360.09
2019-05-12T21:14:35.167Z,99357.02
2019-05-12T21:17:08.861Z,99357.95
2019-05-12T21:19:55.454Z,99358.45
2019-05-12T21:22:15.041Z,99358.45
2019-05-12T21:24:47.061Z,99367.23
2019-05-12T21:27:19.940Z,99372.59
2019-05-12T21:29:54.083Z,99377.02
2019-05-12T21:32:25.717Z,99389.29
2019-05-12T21:34:59.466Z,99381.29
2019-05-12T21:37:38.674Z,99376.91
2019-05-12T21:40:06.346Z,99379.58
2019-05-12T21:42:38.526Z,99383.11
2019-05-12T21:45:10.609Z,99383.97
2019-05-12T21:47:44.343Z,99380.97
2019-05-12T21:50:16.941Z,99394.97
2019-05-12T21:52:49.039Z,99393.56
2019-05-12T21:55:23.215Z,99392.67
2019-05-12T21:57:55.003Z,99404.98
2019-05-12T22:00:36.830Z,99407.05
2019-05-12T22:03:12.994Z,99407.94
2019-05-12T22:05:51.302Z,99408.37
2019-05-12T22:08:22.033Z,99409.62
2019-05-12T22:10:54.219Z,99411.36
2019-05-12T22:13:28.154Z,99416.30
2019-05-12T22:16:00.668Z,99423.33
2019-05-12T22:18:33.345Z,99424.69
2019-05-12T22:21:07.203Z,99422.83
2019-05-12T22:23:44.533Z,99423.33
2019-05-12T22:26:13.030Z,99424.65
2019-05-12T22:28:50.836Z,99428.92
2019-05-12T22:31:20.961Z,99428.07
2019-05-12T22:33:56.393Z,99434.71
2019-05-12T22:36:30.129Z,99432.03
2019-05-12T22:39:03.089Z,99442.14
2019-05-12T22:41:41.111Z,99444.42
2019-05-12T22:44:09.274Z,99449.20
2019-05-12T22:46:43.576Z,99445.28
2019-05-12T22:49:20.730Z,99452.27
2019-05-12T22:51:54.561Z,99453.20
2019-05-12T22:54:24.287Z,99455.41
2019-05-12T22:56:56.980Z,99464.20
2019-05-12T22:59:32.076Z,99454.95
2019-05-12T23:02:04.446Z,99453.16
2019-05-12T23:04:40.404Z,99455.34
2019-05-12T23:07:13.652Z,99453.09
2019-05-12T23:09:46.041Z,99454.84
2019-05-12T23:12:20.079Z,99463.70
2019-05-12T23:14:56.505Z,99457.95
2019-05-12T23:17:25.988Z,99455.30
2019-05-12T23:19:57.962Z,99462.34
2019-05-12T23:22:35.009Z,99470.34
2019-05-12T23:25:04.334Z,99470.70
2019-05-12T23:27:36.296Z,99459.27
2019-05-12T23:30:12.595Z,99462.77
2019-05-12T23:32:51.275Z,99462.84
2019-05-12T23:35:17.619Z,99469.13
2019-05-12T23:37:50.370Z,99466.02
2019-05-12T23:40:23.591Z,99463.34
2019-05-12T23:42:55.746Z,99462.02
2019-05-12T23:45:27.723Z,99463.84
2019-05-12T23:47:59.759Z,99454.24
2019-05-12T23:50:31.779Z,99458.70
2019-05-12T23:53:04.035Z,99456.06
2019-05-12T23:55:36.081Z,99458.42
2019-05-12T23:58:08.092Z,99463.77
